Terminal Aerodrome Forecast
Issued by NWS

Current Version | Previous Version | Graphics & Text | Print | Product List | Glossary On
Versions: 1 2 3 4 5 6 7 8 9 10 11 12 13 14 15 16 17 18 19 20 21 22
000
FTUS41 KILN 211100
TAFLUK
TAF
KLUK 211120Z 2112/2212 01003KT 1/2SM FG VV002
      TEMPO 2112/2113 1/4SM FG VV002
     FM211400 VRB03KT P6SM SCT025
     FM211600 09005KT P6SM SCT035
     FM220100 VRB03KT 4SM BR SKC
     FM220800 00000KT 1/2SM FG VV002=

USA.gov is the U.S. government's official web portal to all federal, state and local government web resources and services.